Time;durP1;ratioP1;P1;durP2;ratioP2;P2;SDS_P1;SDS_P2;PMS_P1;PMS_P2;Temp;Humidity;BMP_temperature;BMP_pressure;BME280_temperature;BME280_humidity;BME280_pressure;Samples;Min_cycle;Max_cycle;Signal;HPM_P1;HPM_P2
2023/07/22 00:00:59;;;;;;;2.70;0.90;;;;;;;28.21;70.77;99251.81;5112147;28;20195;-67
2023/07/22 00:03:25;;;;;;;0.70;0.57;;;;;;;28.23;70.15;99255.91;5112147;28;20217;-67
2023/07/22 00:06:03;;;;;;;0.60;0.60;;;;;;;28.23;70.72;99245.38;5112008;28;20259;-67
2023/07/22 00:08:30;;;;;;;0.53;0.53;;;;;;;28.21;70.98;99235.97;5112039;28;20201;-67
2023/07/22 00:10:57;;;;;;;0.73;0.73;;;;;;;28.14;70.96;99244.50;5112329;28;20654;-67
2023/07/22 00:13:26;;;;;;;3.20;1.03;;;;;;;28.14;71.46;99241.88;5111916;28;20187;-67
2023/07/22 00:15:53;;;;;;;0.70;0.70;;;;;;;28.15;70.98;99254.06;5111424;28;20222;-67
2023/07/22 00:18:21;;;;;;;1.10;1.10;;;;;;;28.10;72.01;99255.56;5111371;28;20195;-67
2023/07/22 00:20:48;;;;;;;0.70;0.70;;;;;;;28.05;71.56;99256.03;5112095;28;20206;-67
2023/07/22 00:23:17;;;;;;;1.13;1.03;;;;;;;28.05;71.54;99263.06;5111951;28;20211;-67
2023/07/22 00:25:43;;;;;;;1.00;1.00;;;;;;;28.01;71.64;99259.94;5111874;28;20195;-67
2023/07/22 00:28:11;;;;;;;1.07;1.03;;;;;;;28.00;71.39;99260.09;5111472;28;20226;-67
2023/07/22 00:30:37;;;;;;;1.07;0.70;;;;;;;27.98;71.66;99259.44;5111180;28;20702;-67
2023/07/22 00:33:05;;;;;;;0.73;0.73;;;;;;;27.96;72.16;99264.03;5111353;28;20191;-67
2023/07/22 00:35:33;;;;;;;0.70;0.70;;;;;;;27.88;72.41;99250.84;5111438;28;20662;-67
2023/07/22 00:38:00;;;;;;;1.47;0.77;;;;;;;27.93;72.01;99259.91;5111717;28;20624;-67
2023/07/22 00:40:27;;;;;;;0.80;0.80;;;;;;;27.92;72.53;99258.25;5111419;28;20191;-67
2023/07/22 00:42:54;;;;;;;0.83;0.83;;;;;;;27.92;72.62;99258.25;5111669;28;20267;-67
2023/07/22 00:45:21;;;;;;;0.40;0.40;;;;;;;27.94;72.44;99260.75;5111481;28;20198;-67
2023/07/22 00:47:48;;;;;;;0.70;0.70;;;;;;;27.94;72.02;99255.47;5109352;28;20268;-67
2023/07/22 00:50:15;;;;;;;1.60;0.90;;;;;;;27.95;72.15;99267.69;5110773;28;20195;-67
2023/07/22 00:52:43;;;;;;;0.73;0.70;;;;;;;27.92;72.93;99270.59;5111267;28;20190;-67
2023/07/22 00:55:10;;;;;;;0.53;0.53;;;;;;;27.90;72.33;99268.16;5111215;28;20259;-67
2023/07/22 00:57:37;;;;;;;1.30;0.73;;;;;;;27.89;72.71;99279.66;5111057;28;20214;-67
2023/07/22 01:00:05;;;;;;;0.50;0.50;;;;;;;27.88;72.44;99275.41;5111246;28;20195;-67
2023/07/22 01:02:34;;;;;;;0.67;0.67;;;;;;;27.88;72.86;99275.41;5110901;28;20652;-67
2023/07/22 01:05:01;;;;;;;0.83;0.83;;;;;;;27.83;72.45;99275.03;5111346;28;20214;-67
2023/07/22 01:07:28;;;;;;;0.67;0.63;;;;;;;27.77;72.69;99290.63;5111234;28;20198;-67
2023/07/22 01:09:59;;;;;;;0.87;0.83;;;;;;;27.73;72.79;99284.84;5110988;28;20206;-67
2023/07/22 01:12:25;;;;;;;0.50;0.50;;;;;;;27.73;72.44;99284.84;5111216;28;20709;-67
2023/07/22 01:14:52;;;;;;;1.53;0.77;;;;;;;27.68;73.66;99265.25;5111135;28;20194;-67
2023/07/22 01:17:20;;;;;;;1.17;0.70;;;;;;;27.61;74.22;99283.50;5110412;28;20758;-67
2023/07/22 01:19:47;;;;;;;1.00;0.93;;;;;;;27.59;74.13;99298.63;5111335;28;20646;-67
2023/07/22 01:22:14;;;;;;;1.47;0.70;;;;;;;27.47;74.25;99284.06;5109970;28;20228;-67
2023/07/22 01:24:43;;;;;;;0.57;0.57;;;;;;;27.57;74.07;99295.31;5111043;28;20231;-67
2023/07/22 01:27:10;;;;;;;0.77;0.77;;;;;;;27.59;74.11;99290.75;5110744;28;20195;-67
2023/07/22 01:29:37;;;;;;;0.80;0.80;;;;;;;27.55;74.49;99286.75;5111131;28;20195;-67
2023/07/22 01:32:05;;;;;;;0.60;0.60;;;;;;;27.55;74.55;99287.59;5111000;28;20194;-67
2023/07/22 01:34:32;;;;;;;0.60;0.60;;;;;;;27.54;74.87;99290.38;5110658;28;20202;-67
2023/07/22 01:36:59;;;;;;;2.10;0.63;;;;;;;27.53;74.84;99293.97;5110445;28;20198;-67
2023/07/22 01:39:27;;;;;;;1.57;1.00;;;;;;;27.43;74.68;99274.81;5110681;28;20268;-67
2023/07/22 01:41:55;;;;;;;0.70;0.70;;;;;;;27.52;74.48;99308.13;5110882;28;20232;-67
2023/07/22 01:44:22;;;;;;;0.60;0.60;;;;;;;27.49;75.72;99305.81;5110502;28;20201;-67
2023/07/22 01:46:49;;;;;;;1.03;0.60;;;;;;;27.37;75.66;99293.84;5110619;28;20202;-67
2023/07/22 01:49:16;;;;;;;0.70;0.70;;;;;;;27.46;75.26;99303.50;5110678;28;20199;-67
2023/07/22 01:51:43;;;;;;;0.77;0.77;;;;;;;27.33;75.33;99271.47;5110761;28;20295;-67
2023/07/22 01:54:10;;;;;;;0.50;0.50;;;;;;;27.42;76.06;99288.94;5110731;28;20201;-67
2023/07/22 01:56:37;;;;;;;0.53;0.53;;;;;;;27.40;76.16;99283.81;5110720;28;20195;-66
2023/07/22 01:59:06;;;;;;;2.10;1.00;;;;;;;27.39;76.29;99284.00;5111247;28;20199;-67
2023/07/22 02:01:33;;;;;;;0.93;0.93;;;;;;;27.26;76.68;99270.44;5114331;28;20205;-67
2023/07/22 02:03:59;;;;;;;0.83;0.63;;;;;;;27.36;76.44;99292.22;5114807;28;20685;-67
2023/07/22 02:06:27;;;;;;;0.80;0.80;;;;;;;27.33;76.05;99282.00;5113942;28;20194;-67
2023/07/22 02:08:54;;;;;;;0.80;0.80;;;;;;;27.30;76.49;99282.31;5114447;27;20195;-66
2023/07/22 02:11:21;;;;;;;0.73;0.73;;;;;;;27.23;77.45;99286.53;5113904;28;20256;-67
2023/07/22 02:13:48;;;;;;;1.00;1.00;;;;;;;27.17;76.79;99281.88;5114562;28;20303;-67
2023/07/22 02:16:16;;;;;;;0.93;0.93;;;;;;;27.21;77.14;99304.25;5113218;28;20582;-67
2023/07/22 02:18:43;;;;;;;0.73;0.73;;;;;;;27.20;77.00;99307.91;5113224;28;20297;-67
2023/07/22 02:21:10;;;;;;;1.10;1.00;;;;;;;27.20;77.85;99302.63;5114324;28;20198;-67
2023/07/22 02:23:37;;;;;;;0.60;0.60;;;;;;;27.15;77.21;99300.44;5113895;28;20225;-67
2023/07/22 02:26:04;;;;;;;0.93;0.73;;;;;;;27.19;77.72;99311.50;5114137;28;20670;-67
2023/07/22 02:28:31;;;;;;;0.77;0.77;;;;;;;27.21;77.89;99310.34;5113725;28;20601;-67
2023/07/22 02:31:03;;;;;;;1.77;0.90;;;;;;;27.25;77.47;99297.72;5114145;27;20621;-66
2023/07/22 02:33:31;;;;;;;0.73;0.73;;;;;;;27.24;77.54;99299.53;5114117;28;20195;-67
2023/07/22 02:35:58;;;;;;;0.80;0.80;;;;;;;27.20;77.59;99295.56;5114151;28;20195;-67
2023/07/22 02:38:25;;;;;;;4.40;0.90;;;;;;;27.18;77.91;99294.03;5114113;28;20190;-67
2023/07/22 02:40:52;;;;;;;3.07;0.60;;;;;;;27.18;77.62;99294.88;5113470;28;20198;-67
2023/07/22 02:43:18;;;;;;;0.90;0.90;;;;;;;27.19;78.06;99290.44;5113876;28;20246;-67
2023/07/22 02:45:45;;;;;;;3.47;0.60;;;;;;;27.16;78.31;99290.75;5113266;28;20190;-66
2023/07/22 02:48:12;;;;;;;0.77;0.77;;;;;;;27.16;78.50;99302.13;5113821;28;20195;-67
2023/07/22 02:50:40;;;;;;;1.00;1.00;;;;;;;27.16;78.39;99285.50;5113820;28;20191;-67
2023/07/22 02:53:07;;;;;;;0.80;0.80;;;;;;;27.13;78.45;99290.09;5113582;28;20582;-67
2023/07/22 02:55:34;;;;;;;0.80;0.80;;;;;;;27.14;78.62;99298.81;5113581;28;20203;-67
2023/07/22 02:58:01;;;;;;;0.67;0.67;;;;;;;27.12;78.59;99300.75;5113455;28;20206;-67
2023/07/22 03:00:27;;;;;;;0.53;0.53;;;;;;;27.10;79.00;99313.25;5111014;28;20199;-67
2023/07/22 03:03:00;;;;;;;0.80;0.80;;;;;;;26.99;79.19;99301.16;5113147;28;20237;-67
2023/07/22 03:05:28;;;;;;;1.17;1.13;;;;;;;27.03;78.99;99296.41;5113504;28;20821;-66
2023/07/22 03:07:56;;;;;;;0.80;0.80;;;;;;;26.90;79.48;99291.56;5113488;28;20601;-67
2023/07/22 03:10:25;;;;;;;1.17;0.57;;;;;;;26.86;79.54;99282.31;5113208;28;20202;-66
2023/07/22 03:12:55;;;;;;;0.60;0.60;;;;;;;26.77;79.57;99274.47;5112826;28;20190;-67
2023/07/22 03:15:22;;;;;;;1.50;1.03;;;;;;;26.76;80.00;99289.41;5112878;28;20685;-67
2023/07/22 03:17:49;;;;;;;0.63;0.63;;;;;;;26.73;79.95;99289.72;5113162;28;20191;-67
2023/07/22 03:20:18;;;;;;;0.60;0.60;;;;;;;26.72;80.19;99292.53;5112197;28;20730;-67
2023/07/22 03:22:45;;;;;;;1.07;0.97;;;;;;;26.69;79.95;99287.56;5112746;28;20214;-67
2023/07/22 03:25:16;;;;;;;0.63;0.63;;;;;;;26.67;80.12;99294.75;5112890;28;20191;-67
2023/07/22 03:27:44;;;;;;;1.50;1.40;;;;;;;26.58;80.67;99285.97;5108380;28;20238;-67
2023/07/22 03:30:14;;;;;;;0.83;0.83;;;;;;;26.67;80.67;99292.97;5111947;28;20199;-66
2023/07/22 03:32:41;;;;;;;0.80;0.80;;;;;;;26.68;80.39;99291.16;5112401;28;20617;-67
2023/07/22 03:35:09;;;;;;;0.77;0.77;;;;;;;26.61;81.11;99291.78;5112817;28;20629;-67
2023/07/22 03:37:37;;;;;;;2.13;1.03;;;;;;;26.61;80.89;99309.34;5112756;28;20282;-67
2023/07/22 03:40:07;;;;;;;1.03;0.80;;;;;;;26.48;81.51;99295.75;5111433;28;20206;-67
2023/07/22 03:42:35;;;;;;;1.03;1.03;;;;;;;26.52;81.91;99305.00;5112603;28;20187;-67
2023/07/22 03:45:02;;;;;;;1.00;1.00;;;;;;;26.54;82.50;99305.66;5112906;28;20642;-67
2023/07/22 03:47:29;;;;;;;1.30;1.20;;;;;;;26.57;81.84;99300.94;5112111;28;20202;-67
2023/07/22 03:49:56;;;;;;;0.70;0.70;;;;;;;26.66;81.83;99304.44;5112340;28;20234;-67
2023/07/22 03:52:23;;;;;;;2.33;0.97;;;;;;;26.52;81.44;99282.16;5112387;28;20638;-67
2023/07/22 03:54:50;;;;;;;2.30;1.57;;;;;;;26.72;80.63;99313.56;5112145;27;20190;-66
2023/07/22 03:57:17;;;;;;;0.70;0.70;;;;;;;26.77;80.65;99320.03;5112291;28;20217;-67
2023/07/22 03:59:45;;;;;;;0.57;0.57;;;;;;;26.82;80.16;99325.66;5112134;28;20666;-66
2023/07/22 04:02:12;;;;;;;1.17;0.80;;;;;;;26.92;79.59;99315.91;5111803;28;20202;-67
2023/07/22 04:04:39;;;;;;;0.83;0.83;;;;;;;26.97;79.35;99329.44;5112131;28;20708;-67
2023/07/22 04:07:08;;;;;;;0.60;0.60;;;;;;;26.98;79.30;99315.28;5111860;28;20734;-67
2023/07/22 04:09:34;;;;;;;1.40;1.27;;;;;;;27.05;78.86;99311.06;5111725;28;20237;-67
2023/07/22 04:12:01;;;;;;;1.07;1.07;;;;;;;27.11;78.15;99323.63;5112104;28;20198;-67
2023/07/22 04:14:28;;;;;;;0.80;0.80;;;;;;;27.19;78.60;99332.56;5111774;27;20207;-66
2023/07/22 04:16:57;;;;;;;2.63;0.87;;;;;;;27.25;78.87;99324.03;5111794;28;20199;-67
2023/07/22 04:19:23;;;;;;;1.30;1.20;;;;;;;27.29;78.64;99318.31;5111082;28;20201;-67
2023/07/22 04:21:50;;;;;;;1.33;0.63;;;;;;;27.37;77.99;99330.69;5111905;28;20684;-67
2023/07/22 04:24:17;;;;;;;1.77;0.93;;;;;;;27.33;77.90;99308.31;5111239;28;20593;-67
2023/07/22 04:26:44;;;;;;;0.80;0.70;;;;;;;27.49;76.79;99325.09;5111600;28;20708;-67
2023/07/22 04:29:12;;;;;;;0.90;0.90;;;;;;;27.54;76.60;99321.97;5111636;28;20222;-67
2023/07/22 04:31:39;;;;;;;1.03;1.03;;;;;;;27.63;77.28;99321.03;5111744;28;20548;-67
2023/07/22 04:34:07;;;;;;;0.80;0.80;;;;;;;27.77;76.90;99323.09;5111322;28;20214;-67
2023/07/22 04:36:34;;;;;;;0.67;0.67;;;;;;;27.92;76.65;99321.50;5111163;28;20198;-67
2023/07/22 04:39:01;;;;;;;1.00;1.00;;;;;;;28.02;75.12;99322.19;5111305;28;20230;-67
2023/07/22 04:41:28;;;;;;;1.07;1.00;;;;;;;28.14;73.68;99326.22;5111539;28;20202;-67
2023/07/22 04:43:54;;;;;;;0.83;0.83;;;;;;;28.27;73.71;99324.97;5110933;28;20214;-67
2023/07/22 04:46:21;;;;;;;1.20;1.10;;;;;;;28.40;73.12;99320.06;5110864;28;20199;-67
2023/07/22 04:48:48;;;;;;;1.07;0.80;;;;;;;28.52;72.83;99326.69;5109566;28;20248;-67
2023/07/22 04:51:16;;;;;;;1.00;0.90;;;;;;;28.67;72.13;99327.72;5111450;28;20199;-67
2023/07/22 04:53:43;;;;;;;0.50;0.50;;;;;;;28.84;72.81;99334.66;5111211;28;20693;-67
2023/07/22 04:56:10;;;;;;;1.20;1.20;;;;;;;29.04;71.81;99332.53;5112088;28;20678;-67
2023/07/22 04:58:36;;;;;;;2.20;1.00;;;;;;;29.17;70.15;99335.50;5111414;28;20662;-67
2023/07/22 05:01:03;;;;;;;0.93;0.93;;;;;;;29.29;70.16;99336.84;5110936;28;20198;-66
2023/07/22 05:03:30;;;;;;;0.88;0.82;;;;;;;29.44;70.51;99336.97;5111133;28;20218;-67
2023/07/22 05:05:57;;;;;;;0.75;0.75;;;;;;;29.59;69.70;99332.66;5111245;28;20205;-67
2023/07/22 05:08:25;;;;;;;1.38;1.30;;;;;;;29.73;68.40;99329.31;5110888;28;20574;-67
2023/07/22 05:10:53;;;;;;;0.80;0.80;;;;;;;29.91;67.90;99323.84;5110419;28;20211;-66
2023/07/22 05:13:20;;;;;;;1.38;1.27;;;;;;;30.02;67.53;99321.63;5109828;28;20290;-67
2023/07/22 05:15:47;;;;;;;0.98;0.77;;;;;;;29.94;64.69;99324.31;5110569;28;20209;-67
2023/07/22 05:18:13;;;;;;;0.77;0.77;;;;;;;29.70;65.83;99332.28;5110828;28;20677;-66
2023/07/22 05:20:40;;;;;;;0.90;0.90;;;;;;;29.80;66.82;99340.84;5111114;28;20210;-66
2023/07/22 05:23:07;;;;;;;1.10;1.10;;;;;;;29.97;65.47;99342.47;5110729;28;20198;-67
2023/07/22 05:25:35;;;;;;;1.27;1.17;;;;;;;30.15;66.34;99348.34;5111226;28;20198;-67
2023/07/22 05:28:02;;;;;;;0.85;0.85;;;;;;;30.28;64.82;99336.38;5110648;28;20689;-66
2023/07/22 05:30:29;;;;;;;1.05;1.05;;;;;;;30.49;63.78;99341.94;5110868;28;20281;-67
2023/07/22 05:32:55;;;;;;;1.30;0.95;;;;;;;30.57;62.27;99341.84;5110948;28;20206;-67
2023/07/22 05:35:22;;;;;;;2.10;0.65;;;;;;;30.65;62.19;99347.13;5111598;28;20195;-66
2023/07/22 05:37:49;;;;;;;1.13;1.02;;;;;;;30.82;61.61;99346.00;5114645;28;20206;-66
2023/07/22 05:40:16;;;;;;;3.17;1.13;;;;;;;31.02;62.61;99336.59;5114726;28;20682;-66
2023/07/22 05:42:44;;;;;;;2.22;1.08;;;;;;;31.21;61.45;99333.44;5114311;28;20190;-66
2023/07/22 05:45:13;;;;;;;1.20;1.15;;;;;;;31.30;60.82;99344.81;5114596;28;20215;-67
2023/07/22 05:47:40;;;;;;;0.77;0.75;;;;;;;31.41;59.87;99343.53;5114354;28;20206;-66
2023/07/22 05:50:08;;;;;;;0.85;0.85;;;;;;;31.41;59.10;99341.72;5114698;28;20665;-67
2023/07/22 05:52:35;;;;;;;0.93;0.93;;;;;;;31.52;59.56;99336.00;5114011;28;20195;-66
2023/07/22 05:55:01;;;;;;;1.10;1.00;;;;;;;31.67;59.81;99330.72;5114421;28;20187;-66
2023/07/22 05:57:28;;;;;;;5.82;0.90;;;;;;;31.78;58.78;99332.91;5114843;28;20201;-66
2023/07/22 05:59:56;;;;;;;1.15;1.15;;;;;;;31.83;58.94;99338.47;5114715;28;20282;-66
2023/07/22 06:02:23;;;;;;;1.90;1.20;;;;;;;31.82;59.55;99344.81;5112173;28;20803;-65
2023/07/22 06:04:50;;;;;;;1.33;1.33;;;;;;;31.98;58.57;99339.31;5114102;28;20215;-65
2023/07/22 06:07:17;;;;;;;2.28;1.05;;;;;;;32.09;58.76;99341.50;5112854;28;20199;-65
2023/07/22 06:09:43;;;;;;;1.33;1.20;;;;;;;32.34;58.21;99334.06;5114389;28;20708;-66
2023/07/22 06:12:10;;;;;;;1.00;1.00;;;;;;;32.34;57.18;99333.25;5114318;28;20202;-65
2023/07/22 06:14:37;;;;;;;1.10;1.10;;;;;;;32.19;56.52;99326.13;5113078;28;20602;-66
2023/07/22 06:17:05;;;;;;;1.17;1.08;;;;;;;32.38;57.50;99330.00;5112904;28;20704;-65
2023/07/22 06:19:32;;;;;;;1.30;1.20;;;;;;;32.59;57.23;99331.91;5113426;28;20195;-65
2023/07/22 06:21:59;;;;;;;1.13;1.02;;;;;;;32.75;56.15;99336.97;5114093;28;20217;-65
2023/07/22 06:24:26;;;;;;;1.20;1.10;;;;;;;32.87;55.54;99339.94;5113848;28;20214;-65
2023/07/22 06:26:52;;;;;;;1.17;1.17;;;;;;;33.01;54.95;99333.75;5114335;28;20616;-65
2023/07/22 06:29:19;;;;;;;1.30;0.80;;;;;;;32.81;54.82;99330.91;5113931;28;20230;-65
2023/07/22 06:31:46;;;;;;;1.45;1.08;;;;;;;32.72;55.46;99338.19;5114263;28;20206;-65
2023/07/22 06:34:14;;;;;;;0.95;0.95;;;;;;;32.94;56.58;99341.66;5113934;28;20190;-65
2023/07/22 06:36:41;;;;;;;3.47;1.40;;;;;;;33.01;55.69;99341.72;5114370;28;20199;-65
2023/07/22 06:39:08;;;;;;;1.33;1.23;;;;;;;33.21;55.50;99338.25;5114339;28;20198;-65
2023/07/22 06:41:34;;;;;;;1.38;1.35;;;;;;;33.62;56.56;99340.19;5114023;28;20191;-65
2023/07/22 06:44:01;;;;;;;2.85;1.20;;;;;;;33.92;53.26;99328.28;5114161;28;20218;-65
2023/07/22 06:46:28;;;;;;;0.80;0.80;;;;;;;34.13;51.82;99343.34;5113105;28;20191;-64
2023/07/22 06:48:55;;;;;;;0.85;0.85;;;;;;;34.25;52.28;99336.44;5113970;28;20593;-65
2023/07/22 06:51:23;;;;;;;1.98;1.30;;;;;;;34.38;51.57;99347.09;5114352;28;20256;-65
2023/07/22 06:53:50;;;;;;;1.38;1.27;;;;;;;34.65;50.40;99348.03;5113678;28;20204;-65
2023/07/22 06:56:17;;;;;;;1.35;1.27;;;;;;;34.53;51.33;99354.94;5113846;28;20242;-65
2023/07/22 06:58:43;;;;;;;1.23;1.23;;;;;;;34.03;49.87;99349.00;5113696;28;20202;-65
2023/07/22 07:01:10;;;;;;;1.63;1.52;;;;;;;33.86;51.51;99342.38;5113660;28;20195;-65
2023/07/22 07:03:37;;;;;;;1.08;1.08;;;;;;;34.19;52.41;99332.72;5113798;28;20612;-65
2023/07/22 07:06:04;;;;;;;1.08;1.08;;;;;;;34.48;50.43;99341.41;5113676;28;20201;-65
2023/07/22 07:08:32;;;;;;;1.60;1.33;;;;;;;34.63;52.01;99339.44;5113579;28;20202;-65
2023/07/22 07:11:00;;;;;;;2.90;1.27;;;;;;;34.18;50.31;99335.59;5113341;28;20608;-65
2023/07/22 07:13:27;;;;;;;2.05;1.02;;;;;;;34.48;50.36;99330.75;5113295;28;20194;-65
2023/07/22 07:15:55;;;;;;;1.08;1.08;;;;;;;34.59;50.43;99331.00;5113474;28;20590;-65
2023/07/22 07:18:22;;;;;;;3.75;1.40;;;;;;;34.66;49.24;99334.53;5113413;28;20200;-65
2023/07/22 07:20:50;;;;;;;1.55;0.90;;;;;;;34.90;49.29;99335.78;5113209;28;20202;-65
2023/07/22 07:23:17;;;;;;;1.80;1.30;;;;;;;35.20;48.66;99336.22;5112825;28;20670;-65
2023/07/22 07:25:45;;;;;;;1.75;1.55;;;;;;;35.37;47.18;99333.97;5113047;28;20206;-65
2023/07/22 07:28:14;;;;;;;2.50;0.90;;;;;;;35.64;46.38;99332.94;5112990;28;20273;-65
2023/07/22 07:30:40;;;;;;;0.88;0.88;;;;;;;35.79;47.13;99330.84;5113042;28;20191;-65
2023/07/22 07:33:07;;;;;;;1.10;1.10;;;;;;;36.03;47.08;99332.78;5113323;28;20222;-65
2023/07/22 07:35:34;;;;;;;1.55;1.20;;;;;;;35.97;46.75;99317.63;5113059;28;20207;-65
2023/07/22 07:38:01;;;;;;;0.90;0.90;;;;;;;35.49;47.64;99332.28;5113022;28;20198;-65
2023/07/22 07:40:27;;;;;;;1.20;1.20;;;;;;;35.13;47.41;99330.91;5112672;28;20195;-66
2023/07/22 07:42:56;;;;;;;2.58;1.20;;;;;;;34.72;49.52;99332.91;5112765;28;20270;-65
2023/07/22 07:45:22;;;;;;;1.58;1.48;;;;;;;35.03;48.95;99346.44;5112762;28;20246;-65
2023/07/22 07:47:49;;;;;;;1.00;1.00;;;;;;;35.38;50.77;99343.59;5112692;28;20198;-65
2023/07/22 07:50:16;;;;;;;0.90;0.90;;;;;;;35.72;48.90;99346.84;5112950;28;20638;-65
2023/07/22 07:52:43;;;;;;;2.25;1.08;;;;;;;35.68;47.23;99345.63;5112860;28;20628;-65
2023/07/22 07:55:10;;;;;;;2.47;1.00;;;;;;;35.78;47.47;99350.53;5112524;28;20194;-66
2023/07/22 07:57:37;;;;;;;1.42;1.30;;;;;;;35.97;46.07;99352.31;5111646;28;20195;-65
2023/07/22 08:00:08;;;;;;;1.55;1.45;;;;;;;36.01;45.37;99347.38;5112551;28;20194;-65
2023/07/22 08:02:34;;;;;;;1.10;1.10;;;;;;;35.98;46.96;99350.47;5112154;28;20202;-65
2023/07/22 08:05:01;;;;;;;2.28;1.20;;;;;;;36.06;45.97;99348.41;5112338;28;20271;-65
2023/07/22 08:07:28;;;;;;;1.17;1.08;;;;;;;36.02;46.02;99346.34;5110909;28;20198;-65
2023/07/22 08:09:57;;;;;;;1.33;1.10;;;;;;;36.23;45.39;99349.56;5109524;28;20206;-65
2023/07/22 08:12:24;;;;;;;1.40;1.40;;;;;;;36.42;46.65;99336.31;5110648;28;20194;-65
2023/07/22 08:14:50;;;;;;;1.45;1.38;;;;;;;36.31;44.16;99325.31;5111977;28;20195;-65
2023/07/22 08:17:19;;;;;;;1.20;1.10;;;;;;;36.53;45.78;99322.31;5112144;28;20199;-65
2023/07/22 08:19:45;;;;;;;1.30;1.30;;;;;;;36.35;44.38;99316.88;5112239;28;20214;-65
2023/07/22 08:22:12;;;;;;;1.05;0.88;;;;;;;36.58;45.01;99319.81;5111822;28;20203;-65
2023/07/22 08:24:39;;;;;;;3.00;1.52;;;;;;;36.26;43.78;99317.09;5111929;28;20215;-66
2023/07/22 08:27:06;;;;;;;1.30;1.20;;;;;;;36.14;46.39;99316.16;5111422;28;20197;-65
2023/07/22 08:29:33;;;;;;;3.63;1.35;;;;;;;36.32;44.77;99313.59;5112246;28;20220;-66
2023/07/22 08:32:00;;;;;;;1.77;1.67;;;;;;;36.22;44.18;99318.56;5111947;28;20248;-66
2023/07/22 08:34:28;;;;;;;1.10;1.10;;;;;;;36.25;44.90;99310.13;5111881;28;20252;-65
2023/07/22 08:36:55;;;;;;;2.40;1.40;;;;;;;36.51;44.56;99309.19;5111835;28;20209;-65
2023/07/22 08:39:22;;;;;;;1.77;1.67;;;;;;;36.57;44.58;99311.03;5111790;28;20194;-65
2023/07/22 08:41:51;;;;;;;1.25;1.20;;;;;;;36.74;44.10;99305.94;5111160;28;20263;-65
2023/07/22 08:44:20;;;;;;;1.30;1.20;;;;;;;36.97;44.52;99314.19;5111470;28;20317;-64
2023/07/22 08:46:50;;;;;;;1.55;1.45;;;;;;;37.00;43.84;99311.13;5111842;28;20716;-65
2023/07/22 08:49:17;;;;;;;1.25;1.15;;;;;;;37.00;44.01;99313.78;5111512;28;20202;-66
2023/07/22 08:51:46;;;;;;;3.05;0.90;;;;;;;37.20;44.03;99309.09;5111842;28;20198;-65
2023/07/22 08:54:14;;;;;;;0.95;0.95;;;;;;;37.28;42.95;99316.84;5111504;28;20259;-64
2023/07/22 08:56:43;;;;;;;1.17;1.17;;;;;;;37.41;43.97;99307.06;5111580;28;20194;-65
2023/07/22 08:59:10;;;;;;;1.45;1.35;;;;;;;36.98;43.67;99307.81;5111519;28;20195;-65
2023/07/22 09:01:39;;;;;;;1.42;1.38;;;;;;;36.63;45.38;99296.78;5111396;28;20190;-65
2023/07/22 09:04:06;;;;;;;1.50;1.40;;;;;;;36.59;44.81;99297.44;5110876;28;20286;-65
2023/07/22 09:06:33;;;;;;;1.20;1.20;;;;;;;36.52;45.21;99296.63;5109611;28;20214;-64
2023/07/22 09:09:04;;;;;;;1.55;1.30;;;;;;;36.55;44.82;99296.22;5111334;28;20194;-64
2023/07/22 09:11:31;;;;;;;1.85;1.75;;;;;;;36.78;44.59;99312.50;5111261;28;20202;-65
2023/07/22 09:13:59;;;;;;;1.42;1.33;;;;;;;37.09;45.75;99304.47;5111456;28;20213;-65
2023/07/22 09:16:28;;;;;;;1.40;1.40;;;;;;;37.41;42.52;99304.38;5110389;28;20433;-68
2023/07/22 09:18:56;;;;;;;1.42;1.33;;;;;;;37.70;43.75;99295.66;5109984;28;20795;-65
2023/07/22 09:21:23;;;;;;;6.70;1.92;;;;;;;37.82;42.45;99283.97;5109239;28;20294;-65
2023/07/22 09:23:49;;;;;;;1.80;1.70;;;;;;;37.60;41.92;99281.97;5109379;28;20214;-63
2023/07/22 09:26:19;;;;;;;2.00;1.90;;;;;;;37.65;42.58;99279.44;5107947;28;20211;-64
2023/07/22 09:28:53;;;;;;;1.30;1.20;;;;;;;37.29;41.74;99264.16;5108886;28;20221;-64
2023/07/22 09:31:22;;;;;;;1.08;1.00;;;;;;;37.38;44.79;99276.22;5110538;28;20661;-63
2023/07/22 09:33:49;;;;;;;8.43;1.30;;;;;;;37.67;43.45;99264.81;5110422;28;21682;-64
2023/07/22 09:36:15;;;;;;;1.35;1.25;;;;;;;37.79;41.83;99275.56;5110956;28;20613;-63
2023/07/22 09:38:42;;;;;;;1.25;1.25;;;;;;;37.80;41.14;99267.34;5108604;28;20586;-63
2023/07/22 09:41:09;;;;;;;0.98;0.98;;;;;;;37.32;41.16;99259.19;5109438;28;20198;-63
2023/07/22 09:43:41;;;;;;;1.27;1.25;;;;;;;37.26;42.22;99265.44;5108483;28;20187;-63
2023/07/22 09:46:09;;;;;;;3.88;1.20;;;;;;;37.47;41.89;99250.84;5109467;28;20511;-63
2023/07/22 09:48:43;;;;;;;1.38;1.27;;;;;;;37.65;42.28;99231.28;5108530;28;20226;-63
2023/07/22 09:51:15;;;;;;;0.90;0.90;;;;;;;37.92;40.63;99237.16;5107137;28;20639;-63
2023/07/22 09:54:02;;;;;;;4.30;1.88;;;;;;;37.69;39.94;99225.25;5108265;28;20289;-63
2023/07/22 09:56:29;;;;;;;1.55;1.45;;;;;;;37.72;40.95;99232.03;5106132;28;20195;-63
2023/07/22 09:58:59;;;;;;;0.90;0.90;;;;;;;37.96;41.22;99217.75;5109966;28;20195;-63
2023/07/22 10:01:27;;;;;;;1.50;1.50;;;;;;;38.10;40.65;99221.03;5110048;28;20229;-63
2023/07/22 10:03:55;;;;;;;1.75;1.55;;;;;;;38.25;40.37;99222.25;5109391;28;20255;-63
2023/07/22 10:06:25;;;;;;;1.33;1.23;;;;;;;38.09;40.77;99222.09;5109463;28;20210;-63
2023/07/22 10:08:53;;;;;;;1.42;1.33;;;;;;;37.98;40.62;99215.66;5109150;28;20195;-64
2023/07/22 10:11:21;;;;;;;0.93;0.93;;;;;;;37.96;40.83;99223.09;5109374;28;20203;-63
2023/07/22 10:13:48;;;;;;;1.40;1.30;;;;;;;37.78;40.23;99225.75;5109373;28;20195;-64
2023/07/22 10:16:17;;;;;;;1.20;1.10;;;;;;;37.53;40.60;99222.38;5106443;28;21620;-63
2023/07/22 10:18:45;;;;;;;1.55;1.52;;;;;;;37.51;40.23;99224.47;5107629;28;20195;-64
2023/07/22 10:21:13;;;;;;;5.18;1.45;;;;;;;37.72;41.55;99224.81;5107619;28;20223;-63
2023/07/22 10:23:41;;;;;;;5.70;1.77;;;;;;;37.84;39.80;99224.84;5112823;28;20203;-64
2023/07/22 10:26:10;;;;;;;1.15;1.10;;;;;;;37.85;40.28;99215.78;5111744;28;20250;-63
2023/07/22 10:28:38;;;;;;;1.75;1.65;;;;;;;37.92;39.51;99203.19;5113382;28;20733;-63
2023/07/22 10:31:05;;;;;;;1.30;1.23;;;;;;;38.07;38.85;99200.88;5113387;28;20199;-64
2023/07/22 10:33:33;;;;;;;1.10;1.10;;;;;;;37.98;38.40;99199.59;5112622;28;20194;-64
2023/07/22 10:36:05;;;;;;;1.25;1.10;;;;;;;38.04;39.58;99198.66;5113555;28;20221;-64
2023/07/22 10:38:33;;;;;;;1.98;1.30;;;;;;;37.98;39.19;99191.56;5112027;28;20199;-64
2023/07/22 10:41:01;;;;;;;1.63;1.20;;;;;;;38.16;38.68;99193.38;5113007;28;20267;-64
2023/07/22 10:43:31;;;;;;;1.10;1.00;;;;;;;38.17;38.58;99193.13;5113109;28;20206;-64
2023/07/22 10:46:08;;;;;;;1.95;1.52;;;;;;;38.23;38.53;99192.19;5113025;28;20301;-63
2023/07/22 10:48:38;;;;;;;3.70;1.40;;;;;;;38.29;38.76;99193.97;5112726;28;20198;-64
2023/07/22 10:51:07;;;;;;;1.20;1.20;;;;;;;38.32;38.31;99180.09;5112870;28;20244;-64
2023/07/22 10:53:42;;;;;;;1.10;1.10;;;;;;;38.50;39.21;99187.28;5112931;28;20675;-65
2023/07/22 10:56:16;;;;;;;1.08;1.08;;;;;;;38.76;41.06;99181.47;5113091;28;20281;-64
2023/07/22 10:59:03;;;;;;;1.10;1.10;;;;;;;38.76;38.16;99153.84;5111920;28;20323;-64
2023/07/22 11:01:35;;;;;;;1.73;1.63;;;;;;;38.73;37.79;99175.75;5112402;28;20286;-64
2023/07/22 11:04:30;;;;;;;1.63;1.52;;;;;;;38.83;37.67;99170.66;5112395;28;20216;-64
2023/07/22 11:06:58;;;;;;;1.55;1.52;;;;;;;38.95;37.80;99168.78;5111793;28;20206;-64
2023/07/22 11:09:39;;;;;;;1.20;1.20;;;;;;;38.59;38.24;99142.19;5112448;28;20206;-64
2023/07/22 11:12:08;;;;;;;2.25;1.33;;;;;;;38.57;37.33;99142.44;5112408;28;20202;-64
2023/07/22 11:14:38;;;;;;;1.42;1.27;;;;;;;38.86;37.81;99162.16;5108474;27;20195;-64
2023/07/22 11:17:07;;;;;;;0.77;0.77;;;;;;;38.75;36.35;99168.28;5111156;28;20701;-65
2023/07/22 11:19:36;;;;;;;1.45;1.35;;;;;;;38.61;36.42;99166.91;5111938;28;20203;-65
2023/07/22 11:22:03;;;;;;;1.02;1.02;;;;;;;38.42;37.50;99158.13;5111392;28;20263;-64
2023/07/22 11:24:30;;;;;;;1.15;1.15;;;;;;;38.59;37.41;99144.88;5109451;28;20245;-64
2023/07/22 11:26:57;;;;;;;1.70;1.60;;;;;;;38.68;36.99;99140.78;5109749;28;20225;-65
2023/07/22 11:29:24;;;;;;;1.42;1.38;;;;;;;38.73;37.29;99138.25;5111449;28;20666;-64
2023/07/22 11:31:52;;;;;;;3.78;1.40;;;;;;;38.68;37.82;99130.88;5107989;28;20214;-64
2023/07/22 11:34:20;;;;;;;2.00;1.80;;;;;;;38.81;37.19;99128.00;5112243;28;20225;-64
2023/07/22 11:36:49;;;;;;;1.40;1.30;;;;;;;39.05;37.52;99134.16;5111848;28;20319;-65